Time;durP1;ratioP1;P1;durP2;ratioP2;P2;SDS_P1;SDS_P2;PMS_P1;PMS_P2;Temp;Humidity;BMP_temperature;BMP_pressure;BME280_temperature;BME280_humidity;BME280_pressure;Samples;Min_cycle;Max_cycle;Signal;HPM_P1;HPM_P2
2023/02/12 00:00:30;;;;;;;25.45;14.57;;;;;;;5.91;100.00;103674.81;5084883;28;20037;-75
2023/02/12 00:02:56;;;;;;;25.60;14.98;;;;;;;5.89;100.00;103660.66;5087839;28;20032;-75
2023/02/12 00:05:21;;;;;;;26.08;15.20;;;;;;;5.91;100.00;103669.56;5084411;28;20478;-75
2023/02/12 00:07:47;;;;;;;27.10;15.32;;;;;;;5.92;100.00;103678.34;5086948;28;20037;-75
2023/02/12 00:10:12;;;;;;;27.58;15.68;;;;;;;5.90;100.00;103673.00;5087926;28;20032;-74
2023/02/12 00:12:38;;;;;;;27.20;15.15;;;;;;;5.90;100.00;103673.00;5084326;28;20043;-75
2023/02/12 00:15:04;;;;;;;27.25;15.70;;;;;;;5.92;100.00;103676.63;5086309;28;20024;-75
2023/02/12 00:17:29;;;;;;;25.55;15.45;;;;;;;5.92;100.00;103670.47;5085707;28;20032;-74
2023/02/12 00:19:54;;;;;;;25.15;14.63;;;;;;;5.90;100.00;103673.00;5085155;28;20069;-75
2023/02/12 00:22:20;;;;;;;25.25;14.55;;;;;;;5.91;100.00;103673.88;5086858;28;20031;-75
2023/02/12 00:24:45;;;;;;;25.67;15.13;;;;;;;5.90;100.00;103673.00;5083815;28;20090;-75
2023/02/12 00:27:10;;;;;;;25.48;14.85;;;;;;;5.91;100.00;103673.88;5087458;28;20024;-74
2023/02/12 00:29:37;;;;;;;26.15;14.85;;;;;;;5.91;100.00;103664.31;5084654;28;20396;-78
2023/02/12 00:32:02;;;;;;;25.50;14.35;;;;;;;5.92;100.00;103670.47;5086087;28;20123;-78
2023/02/12 00:34:27;;;;;;;25.65;14.77;;;;;;;5.91;100.00;103674.81;5085452;28;20110;-75
2023/02/12 00:36:53;;;;;;;26.05;15.00;;;;;;;5.91;100.00;103677.44;5084794;28;20115;-77
2023/02/12 00:39:18;;;;;;;26.08;15.55;;;;;;;5.93;100.00;103688.94;5086603;28;20142;-75
2023/02/12 00:41:43;;;;;;;26.27;15.20;;;;;;;5.90;100.00;103694.00;5083396;28;20136;-77
2023/02/12 00:44:09;;;;;;;26.13;14.90;;;;;;;5.85;100.00;103687.50;5086745;28;20467;-75
2023/02/12 00:46:34;;;;;;;25.92;15.55;;;;;;;5.83;100.00;103689.13;5084404;28;20360;-75
2023/02/12 00:48:59;;;;;;;26.80;15.48;;;;;;;5.81;100.00;103682.88;5085222;28;20027;-78
2023/02/12 00:51:25;;;;;;;25.77;14.90;;;;;;;5.81;100.00;103674.06;5085638;28;20118;-75
2023/02/12 00:53:50;;;;;;;27.05;15.55;;;;;;;5.80;100.00;103670.53;5084016;28;20028;-75
2023/02/12 00:56:16;;;;;;;26.83;15.90;;;;;;;5.79;100.00;103679.22;5086931;28;20471;-77
2023/02/12 00:58:41;;;;;;;27.20;15.65;;;;;;;5.75;100.00;103675.47;5083444;28;20495;-75
2023/02/12 01:01:06;;;;;;;26.13;15.23;;;;;;;5.76;100.00;103672.03;5085930;28;20040;-75
2023/02/12 01:03:32;;;;;;;28.05;16.00;;;;;;;5.78;100.00;103680.00;5084037;28;20028;-75
2023/02/12 01:05:57;;;;;;;26.80;15.65;;;;;;;5.78;100.00;103672.13;5084530;28;20033;-75
2023/02/12 01:08:23;;;;;;;27.27;15.98;;;;;;;5.81;100.00;103666.19;5085618;28;20024;-75
2023/02/12 01:10:57;;;;;;;26.42;15.30;;;;;;;5.80;100.00;103674.88;5083257;28;20501;-75
2023/02/12 01:13:24;;;;;;;26.20;15.90;;;;;;;5.80;100.00;103675.78;5085638;28;20103;-75
2023/02/12 01:15:59;;;;;;;28.50;16.38;;;;;;;5.80;100.00;103667.00;5083293;28;20020;-75
2023/02/12 01:18:25;;;;;;;26.33;15.88;;;;;;;5.79;100.00;103665.19;5085068;28;20542;-78
2023/02/12 01:20:50;;;;;;;27.02;16.40;;;;;;;5.78;100.00;103666.88;5083545;28;20111;-75
2023/02/12 01:23:16;;;;;;;26.20;15.82;;;;;;;5.75;100.00;103671.91;5086256;28;20355;-75
2023/02/12 01:25:41;;;;;;;27.10;16.35;;;;;;;5.80;100.00;103674.88;5082974;28;20379;-75
2023/02/12 01:28:09;;;;;;;27.65;16.77;;;;;;;5.80;100.00;103673.16;5085689;28;20044;-85
2023/02/12 01:30:34;;;;;;;27.17;16.38;;;;;;;5.79;100.00;103673.97;5083596;28;20020;-75
2023/02/12 01:33:00;;;;;;;27.80;16.52;;;;;;;5.79;100.00;103679.22;5084496;28;20024;-75
2023/02/12 01:35:25;;;;;;;27.27;16.27;;;;;;;5.77;100.00;103672.97;5084989;28;20107;-75
2023/02/12 01:37:50;;;;;;;27.80;16.15;;;;;;;5.72;100.00;103671.72;5082952;28;20032;-75
2023/02/12 01:40:17;;;;;;;27.10;16.08;;;;;;;5.73;100.00;103673.53;5085658;28;20036;-75
2023/02/12 01:42:42;;;;;;;26.98;16.58;;;;;;;5.69;100.00;103671.50;5082489;28;20040;-75
2023/02/12 01:45:13;;;;;;;27.58;16.10;;;;;;;5.66;100.00;103676.53;5085178;28;20407;-75
2023/02/12 01:47:43;;;;;;;28.52;16.60;;;;;;;5.67;100.00;103673.13;5082641;28;20024;-75
2023/02/12 01:50:16;;;;;;;26.70;15.68;;;;;;;5.65;100.00;103670.41;5085399;28;20028;-84
2023/02/12 01:52:49;;;;;;;27.55;16.58;;;;;;;5.63;100.00;103665.84;5082142;28;20467;-77
2023/02/12 01:55:15;;;;;;;27.88;15.93;;;;;;;5.58;100.00;103663.78;5082137;28;20032;-83
2023/02/12 01:57:44;;;;;;;26.80;15.93;;;;;;;5.61;100.00;103665.72;5085476;28;20027;-79
2023/02/12 02:00:13;;;;;;;27.17;15.98;;;;;;;5.61;100.00;103663.09;5082431;28;20032;-84
2023/02/12 02:02:39;;;;;;;28.88;17.27;;;;;;;5.58;100.00;103662.91;5084749;28;20119;-84
2023/02/12 02:05:05;;;;;;;27.00;16.38;;;;;;;5.56;100.00;103665.41;5082860;28;20574;-85
2023/02/12 02:07:31;;;;;;;26.20;15.50;;;;;;;5.56;100.00;103664.47;5083854;28;20031;-85
2023/02/12 02:09:57;;;;;;;27.77;16.10;;;;;;;5.59;100.00;103649.88;5083938;28;20031;-75
2023/02/12 02:15:08;;;;;;;25.42;14.63;;;;;;;5.62;100.00;103654.44;5081473;28;20044;-84
2023/02/12 02:17:58;;;;;;;25.17;13.95;;;;;;;5.66;100.00;103663.41;5084213;28;20024;-87
2023/02/12 02:20:42;;;;;;;26.38;14.98;;;;;;;5.68;100.00;103665.34;5082579;28;20084;-75
2023/02/12 02:23:26;;;;;;;25.27;13.98;;;;;;;5.67;100.00;103660.00;5082320;28;20479;-76
2023/02/12 02:26:13;;;;;;;25.58;14.63;;;;;;;5.68;100.00;103659.16;5082392;28;20436;-78
2023/02/12 02:29:08;;;;;;;25.92;14.82;;;;;;;5.69;100.00;103666.25;5082080;28;20108;-75
2023/02/12 02:32:10;;;;;;;25.38;15.23;;;;;;;5.66;100.00;103658.16;5083685;28;20356;-77
2023/02/12 02:34:44;;;;;;;24.58;13.68;;;;;;;5.66;100.00;103666.03;5069825;28;20372;-75
2023/02/12 02:37:28;;;;;;;26.02;15.02;;;;;;;5.65;100.00;103666.84;5084427;28;20020;-78
2023/02/12 02:40:19;;;;;;;26.83;15.43;;;;;;;5.63;100.00;103668.47;5081848;28;20472;-77
2023/02/12 02:42:58;;;;;;;26.58;15.75;;;;;;;5.58;100.00;103657.66;5080003;28;20048;-75
2023/02/12 02:45:35;;;;;;;26.92;15.60;;;;;;;5.61;100.00;103659.53;5082012;28;20021;-75
2023/02/12 02:48:06;;;;;;;25.95;14.65;;;;;;;5.55;100.00;103666.22;5082994;28;20047;-75
2023/02/12 02:50:34;;;;;;;25.20;14.60;;;;;;;5.51;100.00;103665.91;5083078;28;20490;-75
2023/02/12 02:53:12;;;;;;;26.10;14.93;;;;;;;5.49;100.00;103671.03;5082695;28;20036;-75
2023/02/12 02:55:49;;;;;;;27.67;15.73;;;;;;;5.47;100.00;103664.75;5083790;28;20029;-75
2023/02/12 02:58:30;;;;;;;25.92;15.57;;;;;;;5.49;100.00;103662.22;5081356;28;20029;-75
2023/02/12 03:01:04;;;;;;;26.67;15.32;;;;;;;5.50;100.00;103670.22;5082261;28;20028;-76
2023/02/12 03:04:02;;;;;;;26.42;14.52;;;;;;;5.52;100.00;103657.19;5082844;28;20489;-75
2023/02/12 03:06:38;;;;;;;25.08;14.23;;;;;;;5.53;100.00;103659.97;5082291;28;20455;-75
2023/02/12 03:09:36;;;;;;;26.08;14.93;;;;;;;5.57;100.00;103656.72;5082203;28;20036;-75
2023/02/12 03:12:16;;;;;;;25.83;14.23;;;;;;;5.56;100.00;103657.53;5080034;28;20036;-75
2023/02/12 03:14:47;;;;;;;27.30;15.15;;;;;;;5.55;100.00;103655.72;5083967;28;20020;-77
2023/02/12 03:17:18;;;;;;;26.42;15.25;;;;;;;5.49;100.00;103647.41;5080878;28;20107;-75
2023/02/12 03:19:49;;;;;;;26.50;14.95;;;;;;;5.51;100.00;103651.03;5080827;28;20040;-75
2023/02/12 03:22:18;;;;;;;25.67;15.30;;;;;;;5.50;100.00;103656.19;5080826;28;20025;-75
2023/02/12 03:24:49;;;;;;;26.50;15.13;;;;;;;5.43;100.00;103654.84;5081008;28;20375;-75
2023/02/12 03:27:18;;;;;;;25.25;14.82;;;;;;;5.40;100.00;103652.00;5084972;28;20016;-74
2023/02/12 03:29:43;;;;;;;25.55;15.02;;;;;;;5.40;100.00;103645.06;5084890;28;20021;-75
2023/02/12 03:32:28;;;;;;;26.40;14.90;;;;;;;5.37;100.00;103646.53;5087620;28;20065;-75
2023/02/12 03:35:19;;;;;;;26.65;15.02;;;;;;;5.40;100.00;103646.75;5085723;28;20029;-75
2023/02/12 03:37:56;;;;;;;26.35;14.70;;;;;;;5.35;100.00;103654.31;5078550;28;20037;-74
2023/02/12 03:40:46;;;;;;;27.17;15.15;;;;;;;5.37;100.00;103651.78;5085177;28;20380;-75
2023/02/12 03:43:32;;;;;;;26.05;15.07;;;;;;;5.37;100.00;103651.78;5083421;28;20475;-75
2023/02/12 03:46:11;;;;;;;26.88;15.50;;;;;;;5.38;100.00;103653.63;5085809;28;20111;-75
2023/02/12 03:48:51;;;;;;;26.27;15.55;;;;;;;5.39;100.00;103651.09;5085412;28;20107;-75
2023/02/12 03:51:25;;;;;;;26.70;15.50;;;;;;;5.37;100.00;103647.47;5084729;28;20048;-75
2023/02/12 03:53:51;;;;;;;26.23;15.57;;;;;;;5.39;100.00;103647.59;5084886;28;20103;-76
2023/02/12 03:56:23;;;;;;;25.67;15.18;;;;;;;5.39;100.00;103650.19;5088169;28;20127;-75
2023/02/12 03:58:48;;;;;;;26.75;15.88;;;;;;;5.39;100.00;103645.84;5084265;28;20082;-76
2023/02/12 04:01:13;;;;;;;26.40;15.75;;;;;;;5.35;100.00;103643.81;5088009;28;20035;-85
2023/02/12 04:03:40;;;;;;;26.30;14.73;;;;;;;5.35;100.00;103649.06;5083608;28;20475;-75
2023/02/12 04:06:27;;;;;;;27.27;16.00;;;;;;;5.35;100.00;103658.66;5086828;28;20031;-75
2023/02/12 04:08:56;;;;;;;26.92;15.93;;;;;;;5.30;100.00;103650.47;5085052;28;20114;-75
2023/02/12 04:11:34;;;;;;;27.67;16.42;;;;;;;5.35;100.00;103658.66;5087256;28;20031;-76
2023/02/12 04:14:02;;;;;;;26.67;15.20;;;;;;;5.30;100.00;103649.53;5085616;28;20032;-75
2023/02/12 04:16:47;;;;;;;26.85;15.40;;;;;;;5.34;100.00;103651.56;5084939;28;20036;-77
2023/02/12 04:19:19;;;;;;;26.52;15.48;;;;;;;5.33;100.00;103655.00;5087276;28;20056;-75
2023/02/12 04:22:02;;;;;;;26.95;15.60;;;;;;;5.34;100.00;103655.09;5084056;28;20021;-77
2023/02/12 04:24:43;;;;;;;28.15;16.30;;;;;;;5.35;100.00;103666.53;5085031;28;20054;-75
2023/02/12 04:27:29;;;;;;;27.73;16.35;;;;;;;5.35;100.00;103674.41;5084520;28;20444;-75
2023/02/12 04:30:04;;;;;;;27.73;15.45;;;;;;;5.34;100.00;103676.09;5084551;28;20074;-75
2023/02/12 04:32:52;;;;;;;26.00;15.30;;;;;;;5.33;100.00;103670.72;5085676;28;20081;-75
2023/02/12 04:35:23;;;;;;;26.52;15.68;;;;;;;5.29;100.00;103674.88;5083888;28;20107;-75
2023/02/12 04:37:56;;;;;;;27.63;16.20;;;;;;;5.33;100.00;103673.34;5082894;28;20074;-75
2023/02/12 04:40:22;;;;;;;26.85;15.73;;;;;;;5.36;100.00;103670.97;5083779;28;20053;-77
2023/02/12 04:42:50;;;;;;;26.88;15.93;;;;;;;5.33;100.00;103678.59;5086972;28;20031;-75
2023/02/12 04:45:30;;;;;;;26.85;16.08;;;;;;;5.28;100.00;103677.38;5083647;28;20123;-75
2023/02/12 04:47:56;;;;;;;26.80;15.95;;;;;;;5.26;100.00;103681.59;5084573;28;20131;-75
2023/02/12 04:50:22;;;;;;;27.67;16.42;;;;;;;5.27;100.00;103684.34;5086485;28;20123;-75
2023/02/12 04:52:48;;;;;;;28.40;17.20;;;;;;;5.31;100.00;103681.13;5083334;28;20032;-75
2023/02/12 04:55:13;;;;;;;27.45;15.52;;;;;;;5.33;100.00;103681.22;5086811;28;20051;-76
2023/02/12 04:57:39;;;;;;;27.92;16.20;;;;;;;5.35;100.00;103679.63;5083939;28;20032;-75
2023/02/12 05:00:06;;;;;;;27.63;16.60;;;;;;;5.37;100.00;103678.97;5085494;28;20020;-78
2023/02/12 05:02:33;;;;;;;27.98;16.63;;;;;;;5.41;100.00;103678.34;5084837;28;20031;-75
2023/02/12 05:04:58;;;;;;;27.63;15.95;;;;;;;5.46;100.00;103677.75;5083041;28;20471;-75
2023/02/12 05:07:24;;;;;;;26.80;15.50;;;;;;;5.44;100.00;103674.13;5086048;28;20086;-75
2023/02/12 05:09:49;;;;;;;27.23;15.65;;;;;;;5.47;100.00;103679.59;5083018;28;20028;-75
2023/02/12 05:12:14;;;;;;;27.17;16.00;;;;;;;5.45;100.00;103682.13;5086302;28;20089;-78
2023/02/12 05:14:40;;;;;;;27.55;15.65;;;;;;;5.40;100.00;103680.88;5083499;28;20387;-75
2023/02/12 05:17:05;;;;;;;27.50;16.00;;;;;;;5.36;100.00;103682.38;5085345;28;20082;-75
2023/02/12 05:19:30;;;;;;;28.02;15.65;;;;;;;5.31;100.00;103674.97;5084719;28;20026;-75
2023/02/12 05:21:56;;;;;;;28.55;16.38;;;;;;;5.31;100.00;103681.13;5084057;28;20382;-75
2023/02/12 05:24:21;;;;;;;26.60;15.80;;;;;;;5.29;100.00;103679.22;5085826;28;20032;-75
2023/02/12 05:26:48;;;;;;;27.90;16.20;;;;;;;5.29;100.00;103689.72;5081385;28;20039;-75
2023/02/12 05:29:14;;;;;;;26.95;15.95;;;;;;;5.28;100.00;103687.88;5084961;28;20062;-75
2023/02/12 05:31:39;;;;;;;26.75;16.40;;;;;;;5.31;100.00;103682.84;5081931;28;20076;-78
2023/02/12 05:34:07;;;;;;;27.73;15.82;;;;;;;5.30;100.00;103686.25;5084625;28;20025;-75
2023/02/12 05:36:33;;;;;;;26.63;15.63;;;;;;;5.24;100.00;103682.41;5084139;28;20051;-83
2023/02/12 05:38:59;;;;;;;28.80;16.75;;;;;;;5.24;100.00;103686.72;5083616;28;20424;-75
2023/02/12 05:41:24;;;;;;;27.90;16.35;;;;;;;5.23;100.00;103685.81;5085111;28;20099;-74
2023/02/12 05:43:51;;;;;;;28.08;16.52;;;;;;;5.21;100.00;103689.13;5082519;28;20029;-75
2023/02/12 05:46:18;;;;;;;28.25;16.52;;;;;;;5.19;100.00;103683.78;5085769;28;20433;-74
2023/02/12 05:48:44;;;;;;;28.95;17.10;;;;;;;5.20;100.00;103683.00;5082220;28;20029;-75
2023/02/12 05:51:12;;;;;;;28.55;16.33;;;;;;;5.19;100.00;103680.25;5085122;28;20395;-75
2023/02/12 05:53:39;;;;;;;28.00;16.33;;;;;;;5.16;100.00;103683.56;5082966;28;20497;-76
2023/02/12 05:56:15;;;;;;;28.40;16.63;;;;;;;5.18;100.00;103687.19;5084129;28;20052;-75
2023/02/12 05:58:43;;;;;;;28.45;16.85;;;;;;;5.18;100.00;103695.06;5082727;28;20349;-75
2023/02/12 06:01:16;;;;;;;28.77;16.98;;;;;;;5.21;100.00;103695.31;5084691;28;20019;-75
2023/02/12 06:03:41;;;;;;;29.70;17.48;;;;;;;5.20;100.00;103693.47;5082411;28;20063;-75
2023/02/12 06:06:07;;;;;;;28.63;17.35;;;;;;;5.22;100.00;103689.25;5084186;28;20047;-74
2023/02/12 06:08:33;;;;;;;28.50;17.00;;;;;;;5.23;100.00;103690.19;5083688;28;20081;-75
2023/02/12 06:11:03;;;;;;;27.70;16.60;;;;;;;5.21;100.00;103687.44;5082911;28;20107;-75
2023/02/12 06:13:29;;;;;;;28.02;16.70;;;;;;;5.23;100.00;103700.66;5082709;28;20111;-78
2023/02/12 06:15:55;;;;;;;29.10;16.98;;;;;;;5.19;100.00;103699.53;5082560;28;20497;-75
2023/02/12 06:18:20;;;;;;;27.70;16.88;;;;;;;5.13;100.00;103693.84;5084985;28;20118;-75
2023/02/12 06:20:45;;;;;;;29.05;16.98;;;;;;;5.12;100.00;103701.59;5081859;28;20025;-75
2023/02/12 06:23:11;;;;;;;28.10;16.50;;;;;;;5.14;100.00;103695.69;5084728;28;20024;-76
2023/02/12 06:25:36;;;;;;;28.77;17.05;;;;;;;5.14;100.00;103694.75;5082747;28;20046;-75
2023/02/12 06:28:01;;;;;;;28.95;17.65;;;;;;;5.15;100.00;103699.19;5083246;28;20028;-75
2023/02/12 06:30:27;;;;;;;28.45;17.17;;;;;;;5.20;100.00;103700.44;5083875;28;20040;-75
2023/02/12 06:32:52;;;;;;;28.52;16.58;;;;;;;5.14;100.00;103699.97;5081647;28;20032;-77
2023/02/12 06:35:17;;;;;;;29.65;17.15;;;;;;;5.13;100.00;103688.59;5085019;28;20031;-75
2023/02/12 06:37:43;;;;;;;28.40;17.02;;;;;;;5.17;100.00;103703.75;5081519;28;20024;-75
2023/02/12 06:40:09;;;;;;;28.60;17.00;;;;;;;5.16;100.00;103704.53;5083615;28;20037;-75
2023/02/12 06:42:34;;;;;;;28.10;17.05;;;;;;;5.19;100.00;103704.75;5082963;28;20028;-75
2023/02/12 06:44:59;;;;;;;28.35;16.67;;;;;;;5.18;100.00;103700.31;5082528;28;20487;-75
2023/02/12 06:47:26;;;;;;;31.88;18.15;;;;;;;5.18;100.00;103705.56;5083986;28;20477;-75
2023/02/12 06:49:51;;;;;;;30.00;18.02;;;;;;;5.23;100.00;103706.81;5081516;28;20024;-84
2023/02/12 06:52:17;;;;;;;28.58;16.35;;;;;;;5.23;100.00;103708.53;5084563;28;20031;-76
2023/02/12 06:54:42;;;;;;;28.50;17.08;;;;;;;5.21;100.00;103713.69;5081546;28;20496;-75
2023/02/12 06:57:08;;;;;;;28.08;16.15;;;;;;;5.21;100.00;103703.19;5083804;28;20440;-77
2023/02/12 06:59:34;;;;;;;29.58;17.58;;;;;;;5.17;100.00;103716.88;5082422;28;20066;-87
2023/02/12 07:01:59;;;;;;;28.00;16.75;;;;;;;5.18;100.00;103713.44;5081992;28;20032;-76
2023/02/12 07:04:24;;;;;;;29.63;17.40;;;;;;;5.15;100.00;103718.44;5082488;28;20039;-84
2023/02/12 07:06:50;;;;;;;30.05;17.80;;;;;;;5.22;100.00;103718.09;5080972;28;20024;-78
2023/02/12 07:09:16;;;;;;;28.85;16.92;;;;;;;5.21;100.00;103718.91;5079766;28;20021;-84
2023/02/12 07:11:41;;;;;;;29.92;17.75;;;;;;;5.24;100.00;103723.44;5083721;28;20347;-81
2023/02/12 07:14:07;;;;;;;29.58;17.70;;;;;;;5.20;100.00;103724.97;5080603;28;20035;-79
2023/02/12 07:16:32;;;;;;;31.33;19.55;;;;;;;5.18;100.00;103723.91;5082626;28;20378;-87
2023/02/12 07:18:57;;;;;;;29.50;17.55;;;;;;;5.21;100.00;103718.91;5083235;28;20382;-79
2023/02/12 07:21:23;;;;;;;29.88;17.58;;;;;;;5.21;100.00;103728.47;5081066;28;20521;-86
2023/02/12 07:23:50;;;;;;;28.98;17.02;;;;;;;5.21;100.00;103731.09;5084412;28;20511;-86
2023/02/12 07:26:16;;;;;;;30.00;18.05;;;;;;;5.20;100.00;103730.19;5081068;28;20375;-85
2023/02/12 07:28:42;;;;;;;31.55;18.40;;;;;;;5.22;100.00;103723.34;5083428;28;20057;-80
2023/02/12 07:31:16;;;;;;;30.98;18.48;;;;;;;5.19;100.00;103727.47;5081894;28;20036;-84
2023/02/12 07:33:42;;;;;;;29.98;18.35;;;;;;;5.15;100.00;103733.28;5083506;28;20053;-85
2023/02/12 07:36:14;;;;;;;30.77;18.52;;;;;;;5.13;100.00;103737.53;5081760;28;20383;-79
2023/02/12 07:38:39;;;;;;;30.48;18.83;;;;;;;5.14;100.00;103740.25;5083300;28;20024;-84
2023/02/12 07:41:19;;;;;;;30.90;18.95;;;;;;;5.17;100.00;103747.41;5081895;28;20511;-82
2023/02/12 07:43:46;;;;;;;30.33;18.58;;;;;;;5.23;100.00;103742.63;5083841;28;20084;-84
2023/02/12 07:46:15;;;;;;;31.15;18.70;;;;;;;5.24;100.00;103740.13;5080985;28;20025;-75
2023/02/12 07:48:41;;;;;;;30.05;18.63;;;;;;;5.26;100.00;103752.41;5083375;28;20028;-75
2023/02/12 07:51:10;;;;;;;31.35;18.27;;;;;;;5.29;100.00;103745.69;5081653;28;20131;-75
2023/02/12 07:53:36;;;;;;;30.33;18.35;;;;;;;5.35;100.00;103751.38;5082561;28;20090;-75
2023/02/12 07:56:10;;;;;;;33.63;21.05;;;;;;;5.38;100.00;103754.22;5082496;28;20539;-75
2023/02/12 07:58:37;;;;;;;31.17;18.70;;;;;;;5.39;100.00;103753.44;5081391;28;20028;-76
2023/02/12 08:01:17;;;;;;;31.50;20.17;;;;;;;5.44;100.00;103751.13;5082169;28;20115;-75
2023/02/12 08:03:44;;;;;;;30.92;18.55;;;;;;;5.48;100.00;103747.94;5083688;28;20093;-75
2023/02/12 08:06:15;;;;;;;31.48;19.48;;;;;;;5.48;100.00;103758.41;5081313;28;20028;-75
2023/02/12 08:08:41;;;;;;;30.77;19.57;;;;;;;5.51;100.00;103750.75;5083252;28;20032;-75
2023/02/12 08:11:08;;;;;;;31.80;20.15;;;;;;;5.54;100.00;103750.97;5081546;28;20293;-75
2023/02/12 08:13:35;;;;;;;34.28;20.05;;;;;;;5.55;100.00;103752.81;5084544;28;20387;-75
2023/02/12 08:16:05;;;;;;;32.05;19.25;;;;;;;5.62;100.00;103753.25;5086761;28;20036;-75
2023/02/12 08:18:32;;;;;;;32.75;21.00;;;;;;;5.66;100.00;103757.91;5085235;28;20040;-78
2023/02/12 08:21:08;;;;;;;31.67;19.90;;;;;;;5.71;100.00;103756.53;5086606;28;20032;-75
2023/02/12 08:23:34;;;;;;;32.95;21.67;;;;;;;5.73;100.00;103761.06;5085788;28;20028;-75
2023/02/12 08:26:13;;;;;;;31.10;19.35;;;;;;;5.75;100.00;103758.53;5086060;28;20382;-77
2023/02/12 08:28:42;;;;;;;33.17;21.50;;;;;;;5.78;100.00;103757.88;5086234;28;20040;-74
2023/02/12 08:31:12;;;;;;;31.45;20.85;;;;;;;5.88;100.00;103763.88;5084981;28;20111;-75
2023/02/12 08:33:37;;;;;;;31.60;19.38;;;;;;;5.89;100.00;103764.78;5086027;28;20429;-75
2023/02/12 08:36:10;;;;;;;31.05;20.27;;;;;;;5.93;100.00;103761.56;5085493;28;20016;-75
2023/02/12 08:38:37;;;;;;;32.22;19.65;;;;;;;6.00;100.00;103770.81;5085736;28;20031;-74
2023/02/12 08:41:05;;;;;;;29.83;18.50;;;;;;;6.02;100.00;103779.72;5085336;28;20131;-78
2023/02/12 08:43:31;;;;;;;32.03;19.52;;;;;;;6.02;100.00;103777.09;5085019;28;20033;-75
2023/02/12 08:46:12;;;;;;;31.98;19.90;;;;;;;6.06;100.00;103781.75;5086245;28;20016;-75
2023/02/12 08:48:38;;;;;;;31.08;18.70;;;;;;;6.13;100.00;103785.72;5083097;28;20490;-75
2023/02/12 08:51:20;;;;;;;31.77;19.35;;;;;;;6.13;100.00;103776.13;5091822;28;20040;-81
2023/02/12 08:53:47;;;;;;;30.88;18.70;;;;;;;6.20;100.00;103772.19;5092357;28;20020;-75
2023/02/12 08:56:15;;;;;;;30.38;18.65;;;;;;;6.26;100.00;103781.44;5094257;28;20030;-74
2023/02/12 08:58:40;;;;;;;31.50;19.35;;;;;;;6.29;100.00;103772.81;5094519;28;20023;-73
2023/02/12 09:01:12;;;;;;;31.08;19.13;;;;;;;6.34;100.00;103781.03;5093259;28;20035;-75
2023/02/12 09:03:38;;;;;;;30.90;19.15;;;;;;;6.38;100.00;103785.72;5094482;28;20032;-74
2023/02/12 09:06:05;;;;;;;31.13;19.08;;;;;;;6.42;100.00;103779.81;5090704;28;21186;-78
2023/02/12 09:08:30;;;;;;;30.73;18.83;;;;;;;6.47;100.00;103780.16;5093638;28;20028;-80
2023/02/12 09:10:56;;;;;;;30.52;18.50;;;;;;;6.53;100.00;103773.59;5094102;28;20111;-78
2023/02/12 09:13:22;;;;;;;31.50;19.02;;;;;;;6.55;100.00;103773.69;5093112;28;20024;-75
2023/02/12 09:15:47;;;;;;;30.20;18.95;;;;;;;6.59;100.00;103781.88;5093926;28;20117;-77
2023/02/12 09:18:13;;;;;;;30.55;18.95;;;;;;;6.63;100.00;103786.53;5093628;28;20077;-77
2023/02/12 09:20:41;;;;;;;31.05;18.98;;;;;;;6.66;100.00;103783.22;5093977;28;20032;-75
2023/02/12 09:23:08;;;;;;;29.92;18.83;;;;;;;6.67;100.00;103778.84;5090256;28;20626;-75
2023/02/12 09:25:34;;;;;;;29.20;17.95;;;;;;;6.70;100.00;103786.94;5093923;28;20028;-76
2023/02/12 09:28:00;;;;;;;31.63;18.73;;;;;;;6.75;100.00;103788.19;5092188;28;20034;-76
2023/02/12 09:30:26;;;;;;;29.90;18.52;;;;;;;6.80;100.00;103794.63;5093854;28;20103;-76
2023/02/12 09:32:51;;;;;;;30.30;18.42;;;;;;;6.87;100.00;103791.63;5092488;28;20119;-78
2023/02/12 09:35:17;;;;;;;31.02;18.80;;;;;;;6.91;100.00;103798.91;5093499;28;20540;-78
2023/02/12 09:37:44;;;;;;;31.58;18.95;;;;;;;6.88;100.00;103792.56;5084610;28;20532;-77
2023/02/12 09:40:19;;;;;;;30.48;18.30;;;;;;;6.86;100.00;103789.81;5086875;28;20028;-76
2023/02/12 09:42:57;;;;;;;29.90;18.02;;;;;;;6.96;100.00;103801.84;5092696;28;20060;-77
2023/02/12 09:45:28;;;;;;;30.02;18.13;;;;;;;6.99;100.00;103794.19;5093095;28;20055;-76
2023/02/12 09:48:22;;;;;;;31.63;18.80;;;;;;;7.06;100.00;103799.03;5089786;28;20077;-76
2023/02/12 09:50:53;;;;;;;30.35;19.00;;;;;;;7.09;100.00;103798.28;5092552;28;20045;-75
2023/02/12 09:53:22;;;;;;;31.10;20.05;;;;;;;7.13;100.00;103802.97;5093257;28;20076;-76
2023/02/12 09:55:47;;;;;;;30.88;18.92;;;;;;;7.19;100.00;103802.44;5093057;28;20037;-77
2023/02/12 09:58:40;;;;;;;32.55;18.27;;;;;;;7.22;100.00;103805.28;5092425;28;20490;-78
2023/02/12 10:01:14;;;;;;;31.38;18.45;;;;;;;7.20;100.00;103792.03;5092999;28;20107;-77
2023/02/12 10:03:40;;;;;;;28.75;17.75;;;;;;;7.23;100.00;103802.75;5089674;28;20048;-76
2023/02/12 10:06:30;;;;;;;30.17;18.27;;;;;;;7.23;100.00;103794.84;5092950;28;20434;-76
2023/02/12 10:09:34;;;;;;;29.45;18.05;;;;;;;7.30;100.00;103794.44;5093068;28;20024;-77
2023/02/12 10:12:11;;;;;;;30.02;17.85;;;;;;;7.33;100.00;103801.63;5089570;28;20036;-77
2023/02/12 10:14:59;;;;;;;28.83;17.35;;;;;;;7.37;100.00;103808.94;5090223;28;20117;-77
2023/02/12 10:17:41;;;;;;;30.95;18.10;;;;;;;7.33;100.00;103804.25;5091710;28;20505;-77
2023/02/12 10:20:15;;;;;;;29.83;18.30;;;;;;;7.37;100.00;103806.28;5091433;28;20036;-76
2023/02/12 10:23:11;;;;;;;27.95;16.85;;;;;;;7.40;100.00;103806.47;5088353;28;20024;-76
2023/02/12 10:25:52;;;;;;;29.38;17.48;;;;;;;7.43;100.00;103808.41;5090764;28;20040;-77
2023/02/12 10:28:32;;;;;;;29.63;17.30;;;;;;;7.42;100.00;103812.75;5090334;28;20440;-77
2023/02/12 10:31:04;;;;;;;30.60;17.95;;;;;;;7.46;100.00;103811.25;5091726;28;20027;-76
2023/02/12 10:33:35;;;;;;;;;;;;;;;7.58;100.00;103797.94;5092545;28;20028;-76
2023/02/12 10:36:25;;;;;;;29.98;17.83;;;;;;;7.48;100.00;103797.38;5089893;28;19953;-79
2023/02/12 10:38:57;;;;;;;29.00;17.48;;;;;;;7.53;100.00;103807.25;5091190;28;20032;-77
2023/02/12 10:41:27;;;;;;;30.30;17.65;;;;;;;7.64;100.00;103790.44;5091539;28;20052;-82
2023/02/12 10:43:52;;;;;;;28.85;17.67;;;;;;;7.67;100.00;103790.63;5089070;28;20540;-76
2023/02/12 10:46:17;;;;;;;29.02;17.58;;;;;;;7.68;100.00;103792.44;5092226;28;20028;-77
2023/02/12 10:48:46;;;;;;;29.60;17.77;;;;;;;7.67;100.00;103794.19;5091759;28;20081;-81
2023/02/12 10:51:40;;;;;;;28.55;17.25;;;;;;;7.70;100.00;103795.19;5090946;28;20028;-76
2023/02/12 10:54:43;;;;;;;29.15;17.42;;;;;;;7.76;100.00;103795.56;5091502;28;20024;-76
2023/02/12 10:57:18;;;;;;;28.67;17.63;;;;;;;7.74;100.00;103789.28;5090390;28;20031;-77
2023/02/12 10:59:45;;;;;;;28.98;17.23;;;;;;;7.79;100.00;103796.69;5092106;28;20025;-81
2023/02/12 11:02:36;;;;;;;29.83;17.98;;;;;;;7.91;100.00;103793.00;5081128;28;20124;-76
2023/02/12 11:05:23;;;;;;;29.92;17.65;;;;;;;7.90;100.00;103791.16;5082561;28;20049;-76
2023/02/12 11:07:50;;;;;;;29.10;18.10;;;;;;;7.90;100.00;103794.69;5081565;28;20062;-78
2023/02/12 11:10:40;;;;;;;28.40;16.98;;;;;;;7.97;100.00;103788.09;5084300;28;20016;-77
2023/02/12 11:13:23;;;;;;;30.50;18.20;;;;;;;8.05;100.00;103785.94;5083847;28;20032;-81
2023/02/12 11:15:49;;;;;;;;;;;;;;;8.22;100.00;103787.88;5082116;28;20029;-79
2023/02/12 11:18:26;;;;;;;28.77;17.75;;;;;;;8.16;100.00;103787.50;5084159;28;19923;-76
2023/02/12 11:20:56;;;;;;;29.15;18.02;;;;;;;8.24;100.00;103783.59;5082115;28;20028;-77
2023/02/12 11:23:30;;;;;;;29.08;17.67;;;;;;;8.28;100.00;103784.69;5083025;28;20453;-76
2023/02/12 11:26:04;;;;;;;29.52;17.42;;;;;;;8.24;100.00;103782.69;5082558;28;20540;-80
2023/02/12 11:28:32;;;;;;;29.88;17.98;;;;;;;8.28;100.00;103782.97;5082119;28;20528;-76